Time;durP1;ratioP1;P1;durP2;ratioP2;P2;SDS_P1;SDS_P2;PMS_P1;PMS_P2;Temp;Humidity;BMP_temperature;BMP_pressure;BME280_temperature;BME280_humidity;BME280_pressure;Samples;Min_cycle;Max_cycle;Signal;HPM_P1;HPM_P2
2022/03/08 00:00:26;;;;;;;5.40;3.53;;;-2.30;99.90;;;;;;5005528;28;20211;-80
2022/03/08 00:02:54;;;;;;;5.17;3.77;;;-2.30;99.90;;;;;;4997295;28;20207;-79
2022/03/08 00:05:22;;;;;;;6.27;4.17;;;-2.30;99.90;;;;;;5015542;28;20624;-80
2022/03/08 00:07:48;;;;;;;5.07;4.17;;;-2.40;99.90;;;;;;5006779;28;20180;-80
2022/03/08 00:10:16;;;;;;;5.90;3.77;;;-2.50;99.90;;;;;;5011268;28;20203;-80
2022/03/08 00:12:42;;;;;;;5.50;3.67;;;-2.50;99.90;;;;;;5007764;28;20698;-79
2022/03/08 00:15:10;;;;;;;5.73;3.93;;;-2.50;99.90;;;;;;5012682;28;20195;-80
2022/03/08 00:17:36;;;;;;;6.40;4.17;;;-2.50;99.90;;;;;;5010425;28;20638;-80
2022/03/08 00:20:03;;;;;;;6.60;4.03;;;-2.50;99.90;;;;;;5013498;28;20211;-80
2022/03/08 00:22:29;;;;;;;6.30;4.00;;;-2.60;99.90;;;;;;5017914;28;20621;-80
2022/03/08 00:24:55;;;;;;;5.87;4.27;;;-2.50;99.90;;;;;;5025859;28;20638;-79
2022/03/08 00:27:20;;;;;;;5.23;3.80;;;-2.50;99.90;;;;;;5027658;28;20188;-81
2022/03/08 00:29:46;;;;;;;5.77;4.00;;;-2.60;99.90;;;;;;5009663;28;20248;-80
2022/03/08 00:32:12;;;;;;;6.60;3.80;;;-2.50;99.90;;;;;;5017001;28;20819;-80
2022/03/08 00:34:38;;;;;;;5.47;3.97;;;-2.50;99.90;;;;;;5008700;28;20283;-81
2022/03/08 00:37:04;;;;;;;6.27;4.00;;;-2.50;99.90;;;;;;5016138;28;20192;-81
2022/03/08 00:39:29;;;;;;;5.13;3.90;;;-2.60;99.90;;;;;;5000480;28;20191;-80
2022/03/08 00:41:55;;;;;;;5.13;3.47;;;-2.60;99.90;;;;;;5017882;28;20226;-80
2022/03/08 00:44:20;;;;;;;6.03;4.23;;;-2.60;99.90;;;;;;4999474;28;20275;-79
2022/03/08 00:46:46;;;;;;;6.83;4.43;;;-2.60;99.90;;;;;;4997972;28;20188;-81
2022/03/08 00:49:12;;;;;;;6.13;4.00;;;-2.60;99.90;;;;;;4998127;28;20188;-80
2022/03/08 00:51:37;;;;;;;5.97;4.00;;;-2.50;99.90;;;;;;5013065;28;20818;-78
2022/03/08 00:54:05;;;;;;;5.80;3.60;;;-2.60;99.90;;;;;;4995885;28;20187;-80
2022/03/08 00:56:30;;;;;;;5.77;3.60;;;-2.60;99.90;;;;;;5014237;28;20188;-80
2022/03/08 00:58:56;;;;;;;4.60;3.37;;;-2.60;99.90;;;;;;4999144;28;21210;-80
2022/03/08 01:01:21;;;;;;;6.67;3.40;;;-2.60;99.90;;;;;;4995822;28;20230;-78
2022/03/08 01:03:47;;;;;;;4.90;3.70;;;-2.50;99.90;;;;;;4997704;28;20192;-78
2022/03/08 01:06:13;;;;;;;6.80;4.17;;;-2.50;99.90;;;;;;4999159;28;20709;-81
2022/03/08 01:08:38;;;;;;;5.17;2.70;;;-2.60;99.90;;;;;;5012757;28;20193;-80
2022/03/08 01:11:04;;;;;;;5.13;3.37;;;-2.60;99.90;;;;;;5013646;28;20273;-79
2022/03/08 01:13:30;;;;;;;5.73;3.70;;;-2.60;99.90;;;;;;4996980;28;20219;-78
2022/03/08 01:15:56;;;;;;;5.37;3.60;;;-2.60;99.90;;;;;;4998760;28;20183;-79
2022/03/08 01:18:21;;;;;;;6.53;4.20;;;-2.70;99.90;;;;;;4998457;28;20184;-80
2022/03/08 01:20:47;;;;;;;8.00;3.70;;;-2.60;99.90;;;;;;4998290;28;20618;-80
2022/03/08 01:23:12;;;;;;;5.63;3.60;;;-2.60;99.90;;;;;;5011759;28;20712;-80
2022/03/08 01:25:40;;;;;;;6.33;4.40;;;-2.60;99.90;;;;;;4997063;28;20238;-79
2022/03/08 01:28:09;;;;;;;7.70;4.43;;;-2.60;99.90;;;;;;5012670;28;20202;-80
2022/03/08 01:30:35;;;;;;;5.47;3.70;;;-2.60;99.90;;;;;;4995994;28;20180;-80
2022/03/08 01:33:01;;;;;;;6.37;4.23;;;-2.70;99.90;;;;;;4997145;28;20192;-80
2022/03/08 01:35:27;;;;;;;5.63;4.10;;;-2.70;99.90;;;;;;5013071;28;20185;-80
2022/03/08 01:37:53;;;;;;;5.80;4.20;;;-2.70;99.90;;;;;;4994387;28;20222;-80
2022/03/08 01:40:20;;;;;;;6.33;4.00;;;-2.80;99.90;;;;;;4995795;28;20575;-80
2022/03/08 01:42:48;;;;;;;5.27;3.70;;;-2.80;99.90;;;;;;4996940;28;20287;-79
2022/03/08 01:45:20;;;;;;;5.30;3.77;;;-2.80;99.90;;;;;;4998145;28;20188;-80
2022/03/08 01:47:46;;;;;;;5.27;4.17;;;-2.80;99.90;;;;;;4996765;28;20266;-80
2022/03/08 01:50:12;;;;;;;5.83;3.50;;;-2.80;99.90;;;;;;4998941;28;20191;-78
2022/03/08 01:52:39;;;;;;;5.07;3.50;;;-2.80;99.90;;;;;;4998262;28;20207;-80
2022/03/08 01:55:07;;;;;;;8.47;4.03;;;-2.80;99.90;;;;;;4997362;28;20670;-77
2022/03/08 01:57:33;;;;;;;5.73;3.77;;;-2.90;99.90;;;;;;5006856;28;20211;-80
2022/03/08 01:59:59;;;;;;;5.87;3.80;;;-2.80;99.90;;;;;;5001967;28;20348;-80
2022/03/08 02:02:25;;;;;;;7.90;4.47;;;-2.80;99.90;;;;;;5001437;28;20224;-80
2022/03/08 02:04:51;;;;;;;5.50;3.93;;;-2.90;99.90;;;;;;5016874;28;20275;-79
2022/03/08 02:07:17;;;;;;;5.87;4.23;;;-2.90;99.90;;;;;;5000609;28;20188;-79
2022/03/08 02:09:43;;;;;;;6.37;4.63;;;-2.90;99.90;;;;;;5015963;28;20199;-80
2022/03/08 02:12:09;;;;;;;5.90;3.77;;;-2.90;99.90;;;;;;5000707;28;20242;-80
2022/03/08 02:14:35;;;;;;;7.27;4.50;;;-2.90;99.90;;;;;;5000561;28;20187;-79
2022/03/08 02:17:02;;;;;;;6.23;4.53;;;-2.90;99.90;;;;;;5017319;28;20175;-79
2022/03/08 02:19:27;;;;;;;6.97;4.60;;;-2.90;99.90;;;;;;5001290;28;20199;-80
2022/03/08 02:21:54;;;;;;;6.83;4.30;;;-3.00;99.90;;;;;;5002522;28;20311;-80
2022/03/08 02:24:20;;;;;;;5.10;4.13;;;-3.00;99.90;;;;;;5001222;28;20298;-78
2022/03/08 02:26:46;;;;;;;5.77;3.93;;;-3.00;99.90;;;;;;5016538;28;20270;-77
2022/03/08 02:29:11;;;;;;;6.17;4.10;;;-3.00;99.90;;;;;;5000941;28;20218;-80
2022/03/08 02:31:37;;;;;;;7.77;4.17;;;-3.00;99.90;;;;;;5016057;28;20294;-77
2022/03/08 02:34:03;;;;;;;6.20;3.70;;;-3.00;99.90;;;;;;5013232;28;20194;-80
2022/03/08 02:36:30;;;;;;;5.10;3.80;;;-3.00;99.90;;;;;;5001097;28;20246;-80
2022/03/08 02:38:56;;;;;;;4.90;3.40;;;-3.00;99.90;;;;;;4999094;28;20196;-80
2022/03/08 02:41:22;;;;;;;4.67;3.60;;;-3.00;99.90;;;;;;5000858;28;20694;-78
2022/03/08 02:43:48;;;;;;;4.10;3.00;;;-3.00;99.90;;;;;;5003730;28;20294;-79
2022/03/08 02:46:14;;;;;;;4.80;3.17;;;-3.00;99.90;;;;;;5016067;28;20191;-78
2022/03/08 02:48:39;;;;;;;5.70;3.83;;;-3.00;99.90;;;;;;5004320;28;20192;-79
2022/03/08 02:51:05;;;;;;;4.50;3.27;;;-3.10;99.90;;;;;;5001377;28;20295;-79
2022/03/08 02:53:31;;;;;;;5.30;3.70;;;-3.00;99.90;;;;;;5000707;28;20682;-79
2022/03/08 02:55:57;;;;;;;5.13;3.50;;;-3.10;99.90;;;;;;5016138;28;20191;-80
2022/03/08 02:58:23;;;;;;;6.30;3.63;;;-3.00;99.90;;;;;;5001170;28;20275;-79
2022/03/08 03:00:48;;;;;;;5.43;3.70;;;-3.00;99.90;;;;;;5014224;28;20303;-78
2022/03/08 03:03:14;;;;;;;5.37;3.37;;;-2.90;99.90;;;;;;4998912;28;20195;-79
2022/03/08 03:05:40;;;;;;;4.37;2.77;;;-3.00;99.90;;;;;;5000134;28;20227;-79
2022/03/08 03:08:06;;;;;;;5.20;3.23;;;-3.00;99.90;;;;;;4999836;28;20717;-81
2022/03/08 03:10:32;;;;;;;4.40;2.90;;;-3.00;99.90;;;;;;5016171;28;20189;-79
2022/03/08 03:12:58;;;;;;;3.90;2.90;;;-3.00;99.90;;;;;;5000360;28;20281;-81
2022/03/08 03:15:25;;;;;;;4.43;3.00;;;-3.00;99.90;;;;;;4998495;28;20191;-80
2022/03/08 03:17:52;;;;;;;5.40;3.57;;;-3.00;99.90;;;;;;4998630;28;20651;-78
2022/03/08 03:20:19;;;;;;;3.77;3.00;;;-3.00;99.90;;;;;;4998898;28;20216;-79
2022/03/08 03:22:45;;;;;;;4.83;3.10;;;-3.10;99.90;;;;;;4999640;28;20223;-80
2022/03/08 03:25:12;;;;;;;6.90;2.70;;;-3.10;99.90;;;;;;5000189;28;20267;-80
2022/03/08 03:27:38;;;;;;;4.67;3.03;;;-3.10;99.90;;;;;;5006681;28;20199;-80
2022/03/08 03:30:07;;;;;;;4.43;2.63;;;-3.10;99.90;;;;;;4999205;28;20213;-79
2022/03/08 03:32:33;;;;;;;3.63;2.60;;;-3.10;99.90;;;;;;5014612;28;20208;-80
2022/03/08 03:35:00;;;;;;;7.40;3.07;;;-3.20;99.90;;;;;;4998050;28;20211;-80
2022/03/08 03:37:26;;;;;;;3.70;2.37;;;-3.10;99.90;;;;;;4999652;28;20173;-80
2022/03/08 03:39:52;;;;;;;4.17;2.40;;;-3.20;99.90;;;;;;4997746;28;20191;-80
2022/03/08 03:42:17;;;;;;;4.70;2.77;;;-3.20;99.90;;;;;;5014852;28;20199;-80
2022/03/08 03:44:43;;;;;;;2.30;2.10;;;-3.00;99.90;;;;;;5000500;28;20188;-80
2022/03/08 03:47:08;;;;;;;4.47;2.00;;;-3.10;99.90;;;;;;4999278;28;20195;-80
2022/03/08 03:49:34;;;;;;;4.03;2.13;;;-3.10;99.90;;;;;;4998759;28;20183;-78
2022/03/08 03:52:00;;;;;;;3.50;2.50;;;-3.20;99.90;;;;;;5015270;28;20640;-79
2022/03/08 03:54:25;;;;;;;3.47;2.90;;;-3.30;99.90;;;;;;5013953;28;20180;-80
2022/03/08 03:56:51;;;;;;;4.70;2.57;;;-3.20;99.90;;;;;;5014614;28;20195;-80
2022/03/08 03:59:17;;;;;;;3.13;2.80;;;-3.20;99.90;;;;;;5014241;28;20214;-79
2022/03/08 04:01:43;;;;;;;6.00;3.40;;;-3.20;99.90;;;;;;5000257;28;20286;-80
2022/03/08 04:04:08;;;;;;;3.73;3.20;;;-3.20;99.90;;;;;;4998702;28;20188;-81
2022/03/08 04:06:34;;;;;;;4.80;3.07;;;-3.30;99.90;;;;;;5014551;28;20273;-80
2022/03/08 04:09:01;;;;;;;5.67;3.10;;;-3.30;99.90;;;;;;5001244;28;20179;-79
2022/03/08 04:11:26;;;;;;;3.17;2.60;;;-3.40;99.90;;;;;;4999516;28;20331;-78
2022/03/08 04:13:52;;;;;;;4.03;3.10;;;-3.40;99.90;;;;;;5000770;28;21252;-81
2022/03/08 04:16:18;;;;;;;3.87;2.67;;;-3.40;99.90;;;;;;4998245;28;20238;-80
2022/03/08 04:18:43;;;;;;;5.37;3.40;;;-3.40;99.90;;;;;;5013577;28;20212;-80
2022/03/08 04:21:09;;;;;;;4.97;2.90;;;-3.40;99.90;;;;;;4998490;28;20295;-80
2022/03/08 04:23:35;;;;;;;3.90;2.40;;;-3.40;99.90;;;;;;4999091;28;20176;-82
2022/03/08 04:26:00;;;;;;;4.20;2.73;;;-3.40;99.90;;;;;;5000675;28;20658;-83
2022/03/08 04:28:26;;;;;;;4.27;2.77;;;-3.40;99.90;;;;;;5015715;28;20175;-80
2022/03/08 04:30:52;;;;;;;3.67;2.90;;;-3.40;99.90;;;;;;5004540;28;20208;-80
2022/03/08 04:33:17;;;;;;;3.63;2.57;;;-3.40;99.90;;;;;;5002394;28;20183;-80
2022/03/08 04:35:43;;;;;;;3.73;2.70;;;-3.40;99.90;;;;;;4997733;28;20192;-80
2022/03/08 04:38:08;;;;;;;5.23;2.90;;;-3.40;99.90;;;;;;4997993;28;20195;-79
2022/03/08 04:40:35;;;;;;;2.97;2.47;;;-3.40;99.90;;;;;;4999427;28;20212;-80
2022/03/08 04:43:00;;;;;;;4.23;2.63;;;-3.40;99.90;;;;;;4996858;28;20203;-80
2022/03/08 04:45:26;;;;;;;3.10;2.27;;;-3.40;99.90;;;;;;4996764;28;20556;-80
2022/03/08 04:47:52;;;;;;;4.33;2.90;;;-3.40;99.90;;;;;;5012553;28;20188;-79
2022/03/08 04:50:17;;;;;;;3.27;2.40;;;-3.40;99.90;;;;;;4998093;28;20196;-79
2022/03/08 04:52:44;;;;;;;4.37;2.80;;;-3.50;99.90;;;;;;4998802;28;20207;-79
2022/03/08 04:55:10;;;;;;;8.17;2.83;;;-3.40;99.90;;;;;;4997914;28;20725;-79
2022/03/08 04:57:36;;;;;;;3.87;2.50;;;-3.50;99.90;;;;;;4998104;28;20211;-78
2022/03/08 05:00:04;;;;;;;4.67;2.63;;;-3.50;99.90;;;;;;4997479;28;20229;-80
2022/03/08 05:02:30;;;;;;;4.37;2.70;;;-3.50;99.90;;;;;;4998726;28;20571;-79
2022/03/08 05:04:56;;;;;;;3.27;2.03;;;-3.40;99.90;;;;;;4996598;28;20195;-80
2022/03/08 05:07:22;;;;;;;5.27;2.60;;;-3.40;99.90;;;;;;4999347;28;20223;-79
2022/03/08 05:09:47;;;;;;;3.43;2.60;;;-3.50;99.90;;;;;;5013500;28;20602;-79
2022/03/08 05:12:14;;;;;;;3.23;2.60;;;-3.50;99.90;;;;;;4998438;28;20648;-78
2022/03/08 05:14:40;;;;;;;3.50;2.60;;;-3.40;99.90;;;;;;5012072;28;20222;-79
2022/03/08 05:17:05;;;;;;;3.53;2.30;;;-3.40;99.90;;;;;;4996959;28;20219;-79
2022/03/08 05:19:31;;;;;;;2.87;2.20;;;-3.40;99.90;;;;;;4995438;28;20229;-78
2022/03/08 05:21:57;;;;;;;3.93;2.50;;;-3.40;99.90;;;;;;4996351;28;20220;-79
2022/03/08 05:24:22;;;;;;;4.17;2.63;;;-3.50;99.90;;;;;;5010202;28;20181;-78
2022/03/08 05:26:48;;;;;;;3.80;2.40;;;-3.40;99.90;;;;;;4996117;28;20180;-80
2022/03/08 05:29:14;;;;;;;3.73;2.40;;;-3.50;99.90;;;;;;4999718;28;20283;-80
2022/03/08 05:31:39;;;;;;;4.97;2.57;;;-3.40;99.90;;;;;;4996431;28;20542;-80
2022/03/08 05:34:05;;;;;;;4.07;2.47;;;-3.40;99.90;;;;;;4999006;28;20725;-80
2022/03/08 05:36:30;;;;;;;7.40;2.80;;;-3.40;99.90;;;;;;4996328;28;20539;-79
2022/03/08 05:38:56;;;;;;;3.37;2.40;;;-3.40;99.90;;;;;;5012737;28;20650;-79
2022/03/08 05:41:22;;;;;;;2.47;2.13;;;-3.40;99.90;;;;;;4997048;28;20242;-80
2022/03/08 05:43:47;;;;;;;2.93;2.30;;;-3.40;99.90;;;;;;4996969;28;20219;-80
2022/03/08 05:46:13;;;;;;;3.60;2.67;;;-3.40;99.90;;;;;;4997144;28;20595;-80
2022/03/08 05:48:39;;;;;;;3.47;2.50;;;-3.40;99.90;;;;;;5012839;28;20183;-79
2022/03/08 05:51:05;;;;;;;4.33;2.97;;;-3.40;99.90;;;;;;5012973;28;20266;-79
2022/03/08 05:53:30;;;;;;;3.83;2.87;;;-3.40;99.90;;;;;;5011477;28;21020;-79
2022/03/08 05:55:56;;;;;;;5.80;3.10;;;-3.40;99.90;;;;;;4998583;28;20184;-80
2022/03/08 05:58:22;;;;;;;3.60;2.57;;;-3.30;99.90;;;;;;4997266;28;20200;-81
2022/03/08 06:00:48;;;;;;;4.17;2.50;;;-3.30;99.90;;;;;;4997553;28;20200;-80
2022/03/08 06:03:13;;;;;;;4.20;3.03;;;-3.20;99.90;;;;;;4998786;28;20444;-79
2022/03/08 06:05:39;;;;;;;3.73;2.60;;;-3.20;99.90;;;;;;5012679;28;20199;-80
2022/03/08 06:08:05;;;;;;;3.80;2.70;;;-3.30;99.90;;;;;;5013546;28;20218;-79
2022/03/08 06:10:31;;;;;;;3.67;2.90;;;-3.30;99.90;;;;;;4995223;28;20186;-80
2022/03/08 06:12:57;;;;;;;3.93;2.83;;;-3.30;99.90;;;;;;4998264;28;20196;-80
2022/03/08 06:15:23;;;;;;;4.77;3.47;;;-3.30;99.90;;;;;;4997039;28;20568;-79
2022/03/08 06:17:48;;;;;;;5.53;3.03;;;-3.30;99.90;;;;;;4997993;28;20183;-79
2022/03/08 06:20:14;;;;;;;3.93;3.23;;;-3.30;99.90;;;;;;4997942;28;20208;-80
2022/03/08 06:22:40;;;;;;;12.37;3.17;;;-3.30;99.90;;;;;;4998061;28;20215;-80
2022/03/08 06:25:06;;;;;;;6.23;3.50;;;-3.30;99.90;;;;;;4999401;28;20646;-80
2022/03/08 06:27:32;;;;;;;4.47;2.80;;;-3.20;99.90;;;;;;4997517;28;20181;-79
2022/03/08 06:29:58;;;;;;;8.20;3.20;;;-3.20;99.90;;;;;;5012775;28;20180;-80
2022/03/08 06:32:23;;;;;;;3.93;3.00;;;-3.10;99.90;;;;;;4998547;28;20671;-79
2022/03/08 06:34:52;;;;;;;9.33;2.83;;;-3.00;99.90;;;;;;4997036;28;20179;-80
2022/03/08 06:37:18;;;;;;;5.40;2.90;;;-3.00;99.90;;;;;;5010545;28;20177;-80
2022/03/08 06:39:45;;;;;;;8.93;3.00;;;-2.90;99.90;;;;;;4995746;28;20180;-80
2022/03/08 06:42:10;;;;;;;4.63;3.00;;;-2.80;99.90;;;;;;5012279;28;20235;-80
2022/03/08 06:44:38;;;;;;;5.07;2.70;;;-2.70;99.90;;;;;;5000195;28;20261;-80
2022/03/08 06:47:05;;;;;;;7.07;3.03;;;-2.60;99.90;;;;;;5000106;28;20192;-79
2022/03/08 06:49:31;;;;;;;13.20;3.90;;;-2.50;99.90;;;;;;5000467;28;20179;-80
2022/03/08 06:51:56;;;;;;;20.60;5.23;;;-2.50;99.90;;;;;;4997818;28;20266;-80
2022/03/08 06:54:22;;;;;;;23.63;5.87;;;-2.40;99.90;;;;;;5001824;28;20187;-79
2022/03/08 06:56:48;;;;;;;20.13;5.17;;;-2.30;99.90;;;;;;5000350;28;20658;-80
2022/03/08 06:59:13;;;;;;;27.13;4.87;;;-2.10;99.90;;;;;;5000595;28;20191;-80
2022/03/08 07:01:39;;;;;;;45.80;5.77;;;-2.10;99.90;;;;;;4999873;28;20634;-80
2022/03/08 07:04:04;;;;;;;28.27;6.77;;;-2.00;99.90;;;;;;5000230;28;20215;-79
2022/03/08 07:06:30;;;;;;;40.17;7.53;;;-1.90;99.90;;;;;;5000483;28;20195;-80
2022/03/08 07:08:56;;;;;;;37.50;5.80;;;-1.80;99.90;;;;;;5000232;28;20620;-80
2022/03/08 07:11:22;;;;;;;22.00;4.83;;;-1.70;99.90;;;;;;4999555;28;20211;-80
2022/03/08 07:13:48;;;;;;;25.67;5.43;;;-1.60;99.90;;;;;;5000516;28;20269;-80
2022/03/08 07:16:13;;;;;;;31.97;5.13;;;-1.50;99.90;;;;;;5015502;28;20184;-79
2022/03/08 07:18:39;;;;;;;27.60;5.07;;;-1.40;99.90;;;;;;5000022;28;20199;-80
2022/03/08 07:21:04;;;;;;;20.23;4.23;;;-1.30;99.90;;;;;;4998875;28;20238;-81
2022/03/08 07:23:30;;;;;;;15.77;3.93;;;-1.10;99.90;;;;;;4998808;28;20209;-81
2022/03/08 07:25:56;;;;;;;28.53;6.37;;;-1.10;99.90;;;;;;4998734;28;20238;-79
2022/03/08 07:28:22;;;;;;;20.60;4.27;;;-0.90;99.90;;;;;;5000437;28;20180;-78
2022/03/08 07:30:47;;;;;;;21.57;5.57;;;-0.90;99.90;;;;;;4999006;28;20651;-79
2022/03/08 07:33:13;;;;;;;4.50;3.33;;;-0.70;99.90;;;;;;4992176;28;20717;-80
2022/03/08 07:35:39;;;;;;;16.23;4.03;;;-0.60;99.90;;;;;;4994482;28;20192;-78
2022/03/08 07:38:04;;;;;;;23.53;4.37;;;-0.40;99.90;;;;;;4998192;28;20289;-80
2022/03/08 07:40:30;;;;;;;14.23;5.43;;;-0.20;99.90;;;;;;4989826;28;20586;-79
2022/03/08 07:42:55;;;;;;;11.27;4.00;;;0.00;99.90;;;;;;4992270;28;20301;-80
2022/03/08 07:45:21;;;;;;;12.47;4.13;;;0.10;99.90;;;;;;4999043;28;20183;-78
2022/03/08 07:47:47;;;;;;;11.37;3.90;;;0.20;99.90;;;;;;5005813;28;20654;-80
2022/03/08 07:50:12;;;;;;;10.03;3.50;;;0.40;99.90;;;;;;4991719;28;20192;-78
2022/03/08 07:52:38;;;;;;;11.67;3.60;;;0.50;99.90;;;;;;4992743;28;20212;-81
2022/03/08 07:55:05;;;;;;;5.07;2.83;;;0.60;99.90;;;;;;4990090;28;20553;-78
2022/03/08 07:57:31;;;;;;;4.57;2.80;;;0.70;99.90;;;;;;5001579;28;20183;-80
2022/03/08 07:59:57;;;;;;;5.60;3.10;;;1.00;99.90;;;;;;4991618;28;20199;-77
2022/03/08 08:02:22;;;;;;;8.43;3.03;;;1.20;99.90;;;;;;5009063;28;20275;-80
2022/03/08 08:04:48;;;;;;;7.07;3.10;;;1.30;99.90;;;;;;5011673;28;20294;-80
2022/03/08 08:07:14;;;;;;;16.47;4.40;;;1.50;99.90;;;;;;4997289;28;20195;-80
2022/03/08 08:09:40;;;;;;;18.83;5.17;;;1.70;99.90;;;;;;4994238;28;20188;-80
2022/03/08 08:12:07;;;;;;;18.00;3.97;;;1.80;99.90;;;;;;4995705;28;20212;-78
2022/03/08 08:14:36;;;;;;;6.67;2.73;;;2.00;99.90;;;;;;4994502;28;20736;-79
2022/03/08 08:17:01;;;;;;;9.73;3.77;;;2.20;99.90;;;;;;4995140;28;20274;-77
2022/03/08 08:19:27;;;;;;;5.33;3.10;;;2.50;99.90;;;;;;4991581;28;20266;-79
2022/03/08 08:21:53;;;;;;;5.87;3.03;;;2.70;99.90;;;;;;5010320;28;20239;-80
2022/03/08 08:24:18;;;;;;;5.83;3.20;;;2.90;99.90;;;;;;5009538;28;20279;-80
2022/03/08 08:26:44;;;;;;;6.20;3.13;;;3.10;99.90;;;;;;4994468;28;20275;-79
2022/03/08 08:29:10;;;;;;;4.47;3.07;;;3.20;99.90;;;;;;4993215;28;20274;-78
2022/03/08 08:31:35;;;;;;;3.63;3.00;;;3.20;99.90;;;;;;5011782;28;20208;-78
2022/03/08 08:34:01;;;;;;;4.90;2.97;;;3.20;99.90;;;;;;4992404;28;20195;-81
2022/03/08 08:36:27;;;;;;;4.67;3.00;;;3.50;99.90;;;;;;5011320;28;20192;-81
2022/03/08 08:38:55;;;;;;;7.43;3.20;;;3.50;99.90;;;;;;5012268;28;20649;-80
2022/03/08 08:41:21;;;;;;;6.30;2.70;;;3.70;99.90;;;;;;5003606;28;20219;-80
2022/03/08 08:43:47;;;;;;;5.50;3.10;;;3.80;99.90;;;;;;5005430;28;20187;-79
2022/03/08 08:46:12;;;;;;;4.27;2.77;;;4.00;99.90;;;;;;4996275;28;20211;-82
2022/03/08 08:48:38;;;;;;;3.63;2.70;;;4.00;99.90;;;;;;4995939;28;20181;-81
2022/03/08 08:51:03;;;;;;;4.37;2.73;;;4.10;99.90;;;;;;5013620;28;20292;-80
2022/03/08 08:53:29;;;;;;;4.87;2.77;;;4.20;99.90;;;;;;4988298;28;20594;-82
2022/03/08 08:55:55;;;;;;;5.63;2.43;;;4.30;99.90;;;;;;5004162;28;20196;-82
2022/03/08 08:58:20;;;;;;;4.37;3.03;;;4.50;99.90;;;;;;4989201;28;20191;-81
2022/03/08 09:00:46;;;;;;;4.93;3.20;;;4.50;99.90;;;;;;5006235;28;20207;-81
2022/03/08 09:03:14;;;;;;;4.13;2.67;;;4.50;99.90;;;;;;4991355;28;20226;-80
2022/03/08 09:05:46;;;;;;;3.37;2.60;;;4.50;99.90;;;;;;4993577;28;20422;-79
2022/03/08 09:08:14;;;;;;;4.57;3.20;;;4.70;99.90;;;;;;4988269;28;20223;-80
2022/03/08 09:10:40;;;;;;;5.83;3.43;;;4.90;99.90;;;;;;5004864;28;20873;-77
2022/03/08 09:13:06;;;;;;;3.97;2.80;;;5.00;99.90;;;;;;5017239;28;20187;-77
2022/03/08 09:15:32;;;;;;;4.30;3.03;;;5.00;99.90;;;;;;5011641;28;20194;-76
2022/03/08 09:17:59;;;;;;;4.10;2.90;;;5.10;99.90;;;;;;4998427;28;20243;-83
2022/03/08 09:20:26;;;;;;;3.20;2.80;;;5.30;99.90;;;;;;4992052;28;20227;-77
2022/03/08 09:22:53;;;;;;;4.77;2.97;;;5.40;99.90;;;;;;5004366;28;20799;-77
2022/03/08 09:25:19;;;;;;;3.77;2.67;;;5.50;99.90;;;;;;4989927;28;20187;-80
2022/03/08 09:27:44;;;;;;;3.43;2.50;;;5.60;99.90;;;;;;4992736;28;20191;-78
2022/03/08 09:30:12;;;;;;;4.30;2.43;;;5.60;99.90;;;;;;4990133;28;20241;-77
2022/03/08 09:32:37;;;;;;;3.27;2.63;;;5.70;99.90;;;;;;4994312;28;20195;-77
2022/03/08 09:35:03;;;;;;;4.63;2.63;;;5.80;99.90;;;;;;4988846;28;20207;-81
2022/03/08 09:37:29;;;;;;;11.97;2.87;;;5.90;99.90;;;;;;5012249;28;20513;-78
2022/03/08 09:39:54;;;;;;;2.60;2.33;;;6.10;99.90;;;;;;4992259;28;20188;-85
2022/03/08 09:42:21;;;;;;;2.57;1.90;;;6.20;99.90;;;;;;4990217;28;20281;-77
2022/03/08 09:44:48;;;;;;;3.80;2.13;;;6.10;99.90;;;;;;4988768;28;20192;-80
2022/03/08 09:47:15;;;;;;;3.20;2.00;;;6.10;99.90;;;;;;4988479;28;20246;-79
2022/03/08 09:49:40;;;;;;;4.30;2.17;;;6.20;99.90;;;;;;4991457;28;20616;-79
2022/03/08 09:52:06;;;;;;;8.40;2.50;;;6.20;99.90;;;;;;4993856;28;20215;-77
2022/03/08 09:54:32;;;;;;;2.93;1.93;;;6.20;99.90;;;;;;5009998;28;20883;-77
2022/03/08 09:56:57;;;;;;;4.93;2.30;;;6.20;99.90;;;;;;4996425;28;20199;-77
2022/03/08 09:59:29;;;;;;;6.53;1.97;;;6.40;99.90;;;;;;4987212;28;20192;-76
2022/03/08 10:01:55;;;;;;;3.27;2.00;;;6.60;99.90;;;;;;4988208;28;20222;-76
2022/03/08 10:04:21;;;;;;;4.03;2.37;;;6.70;99.90;;;;;;4991450;28;20208;-76
2022/03/08 10:06:47;;;;;;;8.43;2.37;;;6.80;99.90;;;;;;4989686;28;20191;-81
2022/03/08 10:09:23;;;;;;;3.37;1.77;;;7.00;99.90;;;;;;5008890;28;20183;-78
2022/03/08 10:11:54;;;;;;;2.37;1.90;;;7.10;99.90;;;;;;4991464;28;20298;-78
2022/03/08 10:14:39;;;;;;;4.00;1.80;;;7.20;99.90;;;;;;4993657;28;20192;-79
2022/03/08 10:17:06;;;;;;;2.47;1.50;;;7.40;99.90;;;;;;4994147;28;20192;-80
2022/03/08 10:19:46;;;;;;;4.57;2.13;;;7.20;99.90;;;;;;4997440;28;20725;-78
2022/03/08 10:22:30;;;;;;;1.60;1.20;;;7.20;99.90;;;;;;5004984;28;20270;-78
2022/03/08 10:25:18;;;;;;;3.67;1.50;;;7.10;99.90;;;;;;5015690;28;20188;-80
2022/03/08 10:27:56;;;;;;;3.27;1.70;;;7.10;99.90;;;;;;4997746;28;20217;-77
2022/03/08 10:30:41;;;;;;;6.37;1.60;;;7.20;99.90;;;;;;4999401;28;20536;-79
2022/03/08 10:33:07;;;;;;;1.97;1.27;;;7.30;99.90;;;;;;4995241;28;20184;-79
2022/03/08 10:35:37;;;;;;;4.47;2.17;;;7.20;99.90;;;;;;5001376;28;20205;-81
2022/03/08 10:38:11;;;;;;;5.07;2.10;;;7.20;99.90;;;;;;5001815;28;20175;-83
2022/03/08 10:40:38;;;;;;;2.50;1.63;;;7.30;99.90;;;;;;4998223;28;20214;-80
2022/03/08 10:43:05;;;;;;;3.43;1.57;;;7.30;99.90;;;;;;4995888;28;20180;-80
2022/03/08 10:45:34;;;;;;;4.77;2.43;;;7.40;99.90;;;;;;5000230;28;20188;-82
2022/03/08 10:47:59;;;;;;;3.33;1.90;;;7.60;99.90;;;;;;4995557;28;20333;-79
2022/03/08 10:50:34;;;;;;;3.57;2.03;;;7.80;99.90;;;;;;5021771;28;20591;-81
2022/03/08 10:53:01;;;;;;;3.83;2.00;;;7.90;99.90;;;;;;4997647;28;20576;-80
2022/03/08 10:55:31;;;;;;;2.83;1.80;;;8.00;99.90;;;;;;4996495;28;20175;-77
2022/03/08 10:58:06;;;;;;;2.93;1.53;;;8.10;99.90;;;;;;4997494;28;20725;-80
2022/03/08 11:00:47;;;;;;;1.83;1.50;;;8.10;99.90;;;;;;4997204;28;20234;-78
2022/03/08 11:03:19;;;;;;;2.50;1.90;;;8.10;99.90;;;;;;4992409;28;20184;-77
2022/03/08 11:05:56;;;;;;;4.53;2.50;;;8.20;99.90;;;;;;5012463;28;20682;-79
2022/03/08 11:08:28;;;;;;;2.37;1.90;;;8.20;99.90;;;;;;5012520;28;20183;-79
2022/03/08 11:10:54;;;;;;;7.73;4.50;;;8.20;99.90;;;;;;4990331;28;20850;-80
2022/03/08 11:13:20;;;;;;;6.87;3.47;;;8.20;99.90;;;;;;4988991;28;20565;-80
2022/03/08 11:15:46;;;;;;;6.57;3.30;;;8.30;99.90;;;;;;4990817;28;20188;-78
2022/03/08 11:18:14;;;;;;;10.00;4.17;;;8.30;99.90;;;;;;4992679;28;20187;-79
2022/03/08 11:20:43;;;;;;;11.03;3.27;;;8.20;99.90;;;;;;4996854;28;20215;-78
2022/03/08 11:23:09;;;;;;;6.13;2.27;;;8.40;99.90;;;;;;4993188;28;20337;-78
2022/03/08 11:25:38;;;;;;;9.77;3.20;;;8.50;99.90;;;;;;4990005;28;20770;-79
2022/03/08 11:28:05;;;;;;;9.73;4.10;;;8.50;99.90;;;;;;4996575;28;20184;-79
2022/03/08 11:30:41;;;;;;;3.47;2.13;;;8.40;99.90;;;;;;4996145;28;20184;-81
2022/03/08 11:33:38;;;;;;;5.80;2.83;;;8.40;99.90;;;;;;5008875;28;20187;-80
2022/03/08 11:36:18;;;;;;;4.23;2.40;;;8.40;99.90;;;;;;5011628;28;20666;-81
2022/03/08 11:39:03;;;;;;;4.17;2.07;;;8.70;99.90;;;;;;4989618;28;20180;-80
2022/03/08 11:41:29;;;;;;;14.30;7.83;;;8.70;99.90;;;;;;5006834;28;20681;-78
2022/03/08 11:43:57;;;;;;;18.93;9.93;;;8.80;99.90;;;;;;4987565;28;20286;-76
2022/03/08 11:46:23;;;;;;;26.27;13.97;;;8.90;99.90;;;;;;5009813;28;20187;-80
2022/03/08 11:48:51;;;;;;;11.20;4.90;;;8.80;99.90;;;;;;5005119;28;20182;-79
2022/03/08 11:51:17;;;;;;;6.87;3.57;;;8.90;99.90;;;;;;4989425;28;20765;-82
2022/03/08 11:53:46;;;;;;;11.33;4.97;;;9.00;99.90;;;;;;4999024;28;20191;-78
2022/03/08 11:56:19;;;;;;;5.10;2.87;;;8.90;99.90;;;;;;5001455;28;20184;-82
2022/03/08 11:58:49;;;;;;;11.73;3.37;;;9.00;99.90;;;;;;5015822;28;20670;-80
2022/03/08 12:01:41;;;;;;;9.37;5.20;;;9.10;99.90;;;;;;4997050;28;20219;-81
2022/03/08 12:04:11;;;;;;;18.30;3.73;;;9.20;99.90;;;;;;4991458;28;20266;-80
2022/03/08 12:06:39;;;;;;;7.77;3.37;;;9.10;98.60;;;;;;5000460;28;20238;-81
2022/03/08 12:09:11;;;;;;;11.60;5.80;;;9.20;98.30;;;;;;5012616;28;20195;-80
2022/03/08 12:11:38;;;;;;;3.47;2.33;;;9.10;98.80;;;;;;4998823;28;20203;-82
2022/03/08 12:14:31;;;;;;;9.13;4.17;;;9.10;99.90;;;;;;4997648;28;20207;-78
2022/03/08 12:17:17;;;;;;;7.60;2.23;;;9.20;98.70;;;;;;4998011;28;20188;-79
2022/03/08 12:19:48;;;;;;;5.17;2.30;;;9.10;97.20;;;;;;4999428;28;20246;-77
2022/03/08 12:22:16;;;;;;;15.13;4.73;;;9.00;97.70;;;;;;4996918;28;20282;-81
2022/03/08 12:24:51;;;;;;;7.67;2.40;;;9.20;98.40;;;;;;4996093;28;20188;-77
2022/03/08 12:27:19;;;;;;;6.00;2.67;;;9.20;96.50;;;;;;4993909;28;20179;-81
2022/03/08 12:30:03;;;;;;;12.60;2.00;;;9.20;94.40;;;;;;4982752;28;20816;-81
2022/03/08 12:32:32;;;;;;;1.97;1.20;;;9.20;93.80;;;;;;5009428;28;20214;-77
2022/03/08 12:35:01;;;;;;;7.03;1.47;;;9.20;92.80;;;;;;4996080;28;20191;-81
2022/03/08 12:37:31;;;;;;;11.67;1.70;;;9.10;92.10;;;;;;4999115;28;20206;-81
2022/03/08 12:40:20;;;;;;;2.80;1.13;;;9.20;91.30;;;;;;5004616;28;20559;-77
2022/03/08 12:42:53;;;;;;;8.17;3.83;;;9.10;87.90;;;;;;4995942;28;20204;-80
2022/03/08 12:45:20;;;;;;;13.17;2.83;;;9.10;91.70;;;;;;4997160;28;20678;-80
2022/03/08 12:47:53;;;;;;;26.80;16.30;;;9.10;92.50;;;;;;4995527;28;20184;-83
2022/03/08 12:50:44;;;;;;;6.73;4.23;;;9.10;92.40;;;;;;5011984;28;20191;-82